Latest Weather Observations for South Channel Island

IDV60901

Issued at 12:51 am EDT Monday 18 February 2019 (issued every 10 minutes, with the page automatically refreshed every 10 minutes)

About weather observations | Map of Melbourne area stations | Latest observations for Melbourne area | Other Formats
Station Details ID: 086344 Name: SOUTH CHANNEL ISLAND Lat: -38.31 Lon: 144.80 Height: 9.0 m
Data from the previous 72 hours. | See also: Recent months at South Channel Island
Date/Time
EDT
Temp
°C
App
Temp
°C
Dew
Point
°C
Rel
Hum
%
Delta-T
°C
Wind Press
QNH
hPa
Press
MSL
hPa
Rain since
9am
mm
Dir  Spd
km/h
Gust
km/h
Spd
kts
Gust
kts
18/12:33am - - - - - SW 22 50 12 27 - - -
18/12:30am - - - - - SSW 15 26 8 14 - - -
18/12:00am - - - - - SW 17 20 9 11 - - -
 
Date/Time
EDT
Temp
°C
App
Temp
°C
Dew
Point
°C
Rel
Hum
%
Delta-T
°C
Wind Press
QNH
hPa
Press
MSL
hPa
Rain since
9am
mm
Dir  Spd
km/h
Gust
km/h
Spd
kts
Gust
kts
17/11:30pm - - - - - SW 15 20 8 11 - - -
17/11:00pm - - - - - SSE 13 15 7 8 - - -
17/10:30pm - - - - - ESE 11 13 6 7 - - -
17/10:00pm - - - - - ENE 17 19 9 10 - - -
17/09:30pm - - - - - ENE 20 24 11 13 - - -
17/09:00pm - - - - - ENE 19 20 10 11 - - -
17/08:30pm - - - - - NE 15 17 8 9 - - -
17/08:00pm - - - - - NE 13 13 7 7 - - -
17/07:30pm - - - - - ENE 13 13 7 7 - - -
17/07:00pm - - - - - NE 11 11 6 6 - - -
17/06:30pm - - - - - NE 11 13 6 7 - - -
17/06:00pm - - - - - NE 11 13 6 7 - - -
17/05:30pm - - - - - ENE 9 9 5 5 - - -
17/05:00pm - - - - - ENE 7 11 4 6 - - -
17/04:30pm - - - - - E 9 11 5 6 - - -
17/04:00pm - - - - - ENE 9 9 5 5 - - -
17/03:30pm - - - - - ENE 6 7 3 4 - - -
17/03:00pm - - - - - E 7 9 4 5 - - -
17/02:30pm - - - - - SE 7 9 4 5 - - -
17/02:00pm - - - - - SE 11 13 6 7 - - -
17/01:30pm - - - - - NE 9 9 5 5 - - -
17/01:00pm - - - - - NE 9 11 5 6 - - -
17/12:30pm - - - - - NE 11 15 6 8 - - -
17/12:00pm - - - - - NE 11 11 6 6 - - -
17/11:30am - - - - - NE 9 11 5 6 - - -
17/11:00am - - - - - NNE 9 13 5 7 - - -
17/10:30am - - - - - NNE 13 15 7 8 - - -
17/10:00am - - - - - NNE 13 15 7 8 - - -
17/09:30am - - - - - NNE 11 13 6 7 - - -
17/09:00am - - - - - NNE 11 13 6 7 - - -
17/08:30am - - - - - NNE 9 13 5 7 - - -
17/08:00am - - - - - NNE 15 17 8 9 - - -
17/07:30am - - - - - NNE 15 17 8 9 - - -
17/07:00am - - - - - NE 13 15 7 8 - - -
17/06:30am - - - - - NNE 11 15 6 8 - - -
17/06:00am - - - - - NNE 9 13 5 7 - - -
17/05:30am - - - - - NNE 11 15 6 8 - - -
17/05:00am - - - - - NNE 11 13 6 7 - - -
17/04:30am - - - - - ENE 11 13 6 7 - - -
17/04:00am - - - - - NNE 11 15 6 8 - - -
17/03:30am - - - - - NE 11 15 6 8 - - -
17/03:00am - - - - - NE 9 13 5 7 - - -
17/02:30am - - - - - E 9 11 5 6 - - -
17/02:00am - - - - - E 11 13 6 7 - - -
17/01:30am - - - - - ESE 11 13 6 7 - - -
17/01:00am - - - - - ESE 9 11 5 6 - - -
17/12:30am - - - - - E 7 9 4 5 - - -
17/12:00am - - - - - ENE 9 11 5 6 - - -
 
Date/Time
EDT
Temp
°C
App
Temp
°C
Dew
Point
°C
Rel
Hum
%
Delta-T
°C
Wind Press
QNH
hPa
Press
MSL
hPa
Rain since
9am
mm
Dir  Spd
km/h
Gust
km/h
Spd
kts
Gust
kts
16/11:30pm - - - - - E 9 13 5 7 - - -
16/11:00pm - - - - - SE 11 13 6 7 - - -
16/10:30pm - - - - - SSE 13 17 7 9 - - -
16/10:00pm - - - - - SSE 15 17 8 9 - - -
16/09:30pm - - - - - S 19 22 10 12 - - -
16/09:00pm - - - - - S 20 26 11 14 - - -
16/08:30pm - - - - - SSE 20 26 11 14 - - -
16/08:00pm - - - - - S 26 30 14 16 - - -
16/07:30pm - - - - - S 28 32 15 17 - - -
16/07:00pm - - - - - S 33 35 18 19 - - -
16/06:30pm - - - - - S 33 37 18 20 - - -
16/06:00pm - - - - - S 32 37 17 20 - - -
16/05:30pm - - - - - S 33 37 18 20 - - -
16/05:00pm - - - - - S 32 37 17 20 - - -
16/04:30pm - - - - - S 37 43 20 23 - - -
16/04:00pm - - - - - S 32 37 17 20 - - -
16/03:30pm - - - - - S 28 33 15 18 - - -
16/03:00pm - - - - - S 33 39 18 21 - - -
16/02:30pm - - - - - SSW 28 32 15 17 - - -
16/02:00pm - - - - - SSW 26 30 14 16 - - -
16/01:30pm - - - - - SW 22 28 12 15 - - -
16/01:00pm - - - - - SW 22 26 12 14 - - -
16/12:30pm - - - - - SW 17 19 9 10 - - -
16/12:00pm - - - - - WSW 15 19 8 10 - - -
16/11:30am - - - - - WNW 11 17 6 9 - - -
16/11:00am - - - - - W 9 13 5 7 - - -
16/10:30am - - - - - W 13 15 7 8 - - -
16/10:00am - - - - - NW 11 13 6 7 - - -
16/09:30am - - - - - SW 6 7 3 4 - - -
16/09:00am - - - - - SW 7 9 4 5 - - -
16/08:30am - - - - - CALM 0 2 0 1 - - -
16/08:00am - - - - - SW 9 11 5 6 - - -
16/07:30am - - - - - SSW 7 7 4 4 - - -
16/07:00am - - - - - SSW 7 9 4 5 - - -
16/06:30am - - - - - S 4 6 2 3 - - -
16/06:00am - - - - - SE 9 11 5 6 - - -
16/05:30am - - - - - SSE 11 13 6 7 - - -
16/05:00am - - - - - SSE 11 13 6 7 - - -
16/04:30am - - - - - SSE 11 13 6 7 - - -
16/04:00am - - - - - SSE 13 15 7 8 - - -
16/03:30am - - - - - SSE 15 17 8 9 - - -
16/03:00am - - - - - SSE 15 17 8 9 - - -
16/02:30am - - - - - SSE 19 20 10 11 - - -
16/02:00am - - - - - S 17 19 9 10 - - -
16/01:30am - - - - - S 17 19 9 10 - - -
16/01:00am - - - - - SSE 17 19 9 10 - - -
16/12:30am - - - - - SE 19 22 10 12 - - -
16/12:00am - - - - - SE 22 26 12 14 - - -
 
Date/Time
EDT
Temp
°C
App
Temp
°C
Dew
Point
°C
Rel
Hum
%
Delta-T
°C
Wind Press
QNH
hPa
Press
MSL
hPa
Rain since
9am
mm
Dir  Spd
km/h
Gust
km/h
Spd
kts
Gust
kts
15/11:30pm - - - - - SE 24 28 13 15 - - -
15/11:00pm - - - - - SE 26 32 14 17 - - -
15/10:30pm - - - - - SE 28 33 15 18 - - -
15/10:00pm - - - - - SE 26 30 14 16 - - -
15/09:30pm - - - - - SE 26 32 14 17 - - -
15/09:00pm - - - - - SE 28 33 15 18 - - -
15/08:30pm - - - - - SSE 30 33 16 18 - - -
15/08:00pm - - - - - SE 33 37 18 20 - - -
15/07:30pm - - - - - SSE 32 35 17 19 - - -
15/07:00pm - - - - - SSE 35 39 19 21 - - -
15/06:30pm - - - - - S 35 39 19 21 - - -
15/06:00pm - - - - - SSE 32 37 17 20 - - -
15/05:30pm - - - - - S 33 39 18 21 - - -
15/05:00pm - - - - - S 35 41 19 22 - - -
15/04:30pm - - - - - S 37 41 20 22 - - -
15/04:00pm - - - - - S 32 35 17 19 - - -
15/03:30pm - - - - - SSW 32 37 17 20 - - -
15/03:00pm - - - - - SSW 28 33 15 18 - - -
15/02:30pm - - - - - SSW 24 30 13 16 - - -
15/02:00pm - - - - - SSW 22 26 12 14 - - -
15/01:30pm - - - - - SW 13 15 7 8 - - -
15/01:00pm - - - - - SW 7 13 4 7 - - -
15/12:30pm - - - - - SW 6 9 3 5 - - -
15/12:00pm - - - - - SSE 6 9 3 5 - - -
15/11:30am - - - - - SSE 9 11 5 6 - - -
15/11:00am - - - - - S 11 13 6 7 - - -
15/10:30am - - - - - SSE 15 19 8 10 - - -
15/10:00am - - - - - S 17 22 9 12 - - -
15/09:30am - - - - - SSE 17 20 9 11 - - -
15/09:00am - - - - - SSE 13 17 7 9 - - -
15/08:30am - - - - - SSE 15 17 8 9 - - -
15/08:00am - - - - - S 15 19 8 10 - - -
15/07:30am - - - - - S 15 19 8 10 - - -
15/07:00am - - - - - SW 15 19 8 10 - - -
15/06:30am - - - - - SW 17 19 9 10 - - -
15/06:00am - - - - - SW 15 19 8 10 - - -
15/05:30am - - - - - SSW 19 22 10 12 - - -
15/05:00am - - - - - SW 13 19 7 10 - - -
15/04:30am - - - - - SSW 11 13 6 7 - - -
15/04:00am - - - - - SW 13 17 7 9 - - -
15/03:30am - - - - - SSW 15 19 8 10 - - -
15/03:00am - - - - - SSW 13 15 7 8 - - -
15/02:30am - - - - - SSW 13 15 7 8 - - -
15/02:00am - - - - - SW 15 17 8 9 - - -
15/01:30am - - - - - SSW 17 22 9 12 - - -
15/01:00am - - - - - SSW 20 24 11 13 - - -

Latest Capital City Observations: Canberra | Sydney | Melbourne | Brisbane | Adelaide | Perth | Hobart | Darwin

Other Formats:

Comma delimited format used in spreadsheet applications
http://www.bom.gov.au/fwo/IDV60901/IDV60901.94853.axf

JavaScript Object Notation format (JSON) in row-major order
http://www.bom.gov.au/fwo/IDV60901/IDV60901.94853.json